Time;durP1;ratioP1;P1;durP2;ratioP2;P2;SDS_P1;SDS_P2;PMS_P1;PMS_P2;Temp;Humidity;BMP_temperature;BMP_pressure;BME280_temperature;BME280_humidity;BME280_pressure;Samples;Min_cycle;Max_cycle;Signal;HPM_P1;HPM_P2
2022/07/04 00:00:10;;;;;;;2.72;1.40;;;14.20;99.90;;;;;;5055245;28;20076;-78
2022/07/04 00:02:38;;;;;;;3.25;1.40;;;14.10;99.90;;;;;;5069707;28;20071;-77
2022/07/04 00:05:04;;;;;;;1.90;1.00;;;14.00;99.90;;;;;;5054008;28;20485;-76
2022/07/04 00:07:30;;;;;;;1.00;0.90;;;14.00;99.90;;;;;;5054958;28;20409;-76
2022/07/04 00:09:55;;;;;;;2.33;0.80;;;14.00;99.90;;;;;;5038438;28;20041;-76
2022/07/04 00:12:21;;;;;;;1.00;0.88;;;14.00;99.90;;;;;;5054533;28;20493;-75
2022/07/04 00:14:47;;;;;;;2.13;1.05;;;14.00;99.90;;;;;;5053111;28;20037;-75
2022/07/04 00:17:12;;;;;;;4.00;1.00;;;13.80;99.90;;;;;;5037933;28;20497;-75
2022/07/04 00:19:38;;;;;;;4.20;1.50;;;13.70;99.90;;;;;;5053929;28;20040;-75
2022/07/04 00:22:04;;;;;;;3.40;1.17;;;13.70;99.90;;;;;;5053612;28;20401;-76
2022/07/04 00:24:29;;;;;;;2.15;1.15;;;13.60;99.90;;;;;;5037309;28;20100;-77
2022/07/04 00:26:55;;;;;;;2.47;1.17;;;13.70;99.90;;;;;;5054365;28;20041;-75
2022/07/04 00:29:20;;;;;;;2.38;1.30;;;13.70;99.90;;;;;;5054454;28;20041;-75
2022/07/04 00:31:46;;;;;;;2.00;1.00;;;13.50;99.90;;;;;;5054615;28;20045;-77
2022/07/04 00:34:12;;;;;;;2.00;1.10;;;13.50;99.90;;;;;;5053674;28;20049;-77
2022/07/04 00:36:37;;;;;;;2.70;1.17;;;13.50;99.90;;;;;;5054287;28;20519;-76
2022/07/04 00:39:03;;;;;;;0.77;0.60;;;13.50;99.90;;;;;;5037678;28;20037;-75
2022/07/04 00:41:29;;;;;;;0.70;0.60;;;13.50;99.90;;;;;;5037884;28;20033;-75
2022/07/04 00:44:09;;;;;;;0.70;0.60;;;13.60;99.90;;;;;;5035995;28;20542;-76
2022/07/04 00:46:35;;;;;;;1.48;0.82;;;13.60;99.90;;;;;;5037660;28;20071;-77
2022/07/04 00:49:03;;;;;;;1.17;0.90;;;13.60;99.90;;;;;;5037657;28;20049;-76
2022/07/04 00:51:29;;;;;;;3.03;1.10;;;13.70;99.90;;;;;;5036285;28;20485;-76
2022/07/04 00:53:55;;;;;;;2.30;1.00;;;13.60;99.90;;;;;;5034393;28;20080;-76
2022/07/04 00:56:23;;;;;;;1.10;1.00;;;13.60;99.90;;;;;;5034260;28;20050;-77
2022/07/04 00:58:50;;;;;;;1.50;1.10;;;13.60;99.90;;;;;;5036973;28;20044;-77
2022/07/04 01:01:16;;;;;;;1.17;1.00;;;13.60;99.90;;;;;;5024989;28;20041;-79
2022/07/04 01:03:42;;;;;;;2.17;1.15;;;13.60;99.90;;;;;;5034043;28;20478;-78
2022/07/04 01:06:10;;;;;;;1.73;0.90;;;13.50;99.90;;;;;;5034077;28;20073;-78
2022/07/04 01:08:39;;;;;;;1.50;0.82;;;13.50;99.90;;;;;;5068205;28;20044;-81
2022/07/04 01:11:05;;;;;;;1.85;0.70;;;13.40;99.90;;;;;;5037074;28;20170;-80
2022/07/04 01:13:30;;;;;;;1.38;0.80;;;13.40;99.90;;;;;;5023882;28;20077;-81
2022/07/04 01:15:56;;;;;;;1.75;0.80;;;13.40;99.90;;;;;;5017336;28;20413;-81
2022/07/04 01:18:22;;;;;;;1.52;1.00;;;13.30;99.90;;;;;;5038384;28;20037;-80
2022/07/04 01:20:48;;;;;;;1.33;0.80;;;13.30;99.90;;;;;;5037057;28;20045;-79
2022/07/04 01:23:14;;;;;;;1.20;0.70;;;13.20;99.90;;;;;;5018238;28;20042;-81
2022/07/04 01:25:39;;;;;;;0.57;0.57;;;13.20;99.90;;;;;;5033401;28;20041;-81
2022/07/04 01:28:06;;;;;;;1.20;0.60;;;13.30;99.90;;;;;;5036120;28;20116;-80
2022/07/04 01:30:32;;;;;;;2.38;0.90;;;13.30;99.90;;;;;;5053394;28;20501;-79
2022/07/04 01:32:58;;;;;;;1.73;0.80;;;13.20;99.90;;;;;;5035678;28;20099;-80
2022/07/04 01:35:24;;;;;;;1.33;1.13;;;13.10;99.90;;;;;;5036066;28;20136;-80
2022/07/04 01:37:49;;;;;;;2.22;1.30;;;13.10;99.90;;;;;;5035562;28;20397;-81
2022/07/04 01:40:15;;;;;;;3.17;1.40;;;13.10;99.90;;;;;;5036468;28;20037;-79
2022/07/04 01:42:41;;;;;;;3.00;1.58;;;13.00;99.90;;;;;;5069245;28;20440;-79
2022/07/04 01:45:08;;;;;;;1.77;1.27;;;13.00;99.90;;;;;;5052530;28;20033;-79
2022/07/04 01:47:35;;;;;;;2.63;1.40;;;13.00;99.90;;;;;;5035560;28;20123;-77
2022/07/04 01:50:01;;;;;;;2.63;1.50;;;13.00;99.90;;;;;;5052686;28;20045;-76
2022/07/04 01:52:27;;;;;;;2.65;1.45;;;13.00;99.90;;;;;;5052841;28;20047;-77
2022/07/04 01:54:53;;;;;;;2.08;1.48;;;13.00;99.90;;;;;;5035461;28;20041;-76
2022/07/04 01:57:18;;;;;;;1.98;1.33;;;13.00;99.90;;;;;;5050613;28;20452;-78
2022/07/04 02:02:28;;;;;;;3.22;1.42;;;13.00;99.90;;;;;;5050901;28;20040;-76
2022/07/04 02:04:54;;;;;;;3.42;1.75;;;13.00;99.90;;;;;;5033323;28;20083;-77
2022/07/04 02:07:20;;;;;;;2.95;1.83;;;13.00;99.90;;;;;;5023109;28;20732;-77
2022/07/04 02:09:46;;;;;;;4.30;1.90;;;13.00;99.90;;;;;;5064403;28;20037;-77
2022/07/04 02:14:56;;;;;;;6.07;2.38;;;13.00;99.90;;;;;;5041382;28;20045;-76
2022/07/04 02:17:22;;;;;;;2.83;1.83;;;13.00;99.90;;;;;;5030393;28;20123;-78
2022/07/04 02:19:47;;;;;;;4.60;1.77;;;12.90;99.90;;;;;;5048687;28;20493;-77
2022/07/04 02:22:14;;;;;;;4.05;1.70;;;12.90;99.90;;;;;;5028197;28;20033;-76
2022/07/04 02:24:40;;;;;;;4.13;1.98;;;12.90;99.90;;;;;;5051341;28;20033;-77
2022/07/04 02:27:07;;;;;;;5.85;2.38;;;12.90;99.90;;;;;;5031566;28;20052;-77
2022/07/04 02:29:32;;;;;;;5.00;2.50;;;12.80;99.90;;;;;;5051899;28;20512;-76
2022/07/04 02:31:58;;;;;;;3.85;2.20;;;12.80;99.90;;;;;;5019922;28;20068;-77
2022/07/04 02:34:23;;;;;;;4.28;2.15;;;12.90;99.90;;;;;;5034997;28;20033;-77
2022/07/04 02:36:49;;;;;;;4.57;2.30;;;12.90;99.90;;;;;;5048536;28;20060;-77
2022/07/04 02:39:15;;;;;;;3.78;2.22;;;12.90;99.90;;;;;;5051883;28;20048;-76
2022/07/04 02:41:41;;;;;;;3.75;2.50;;;12.90;99.90;;;;;;5049603;28;20047;-76
2022/07/04 02:44:06;;;;;;;4.97;2.38;;;12.90;99.90;;;;;;5049907;28;20421;-76
2022/07/04 02:46:33;;;;;;;4.13;2.60;;;12.90;99.90;;;;;;5049753;28;20037;-75
2022/07/04 02:48:59;;;;;;;4.35;2.55;;;12.80;99.90;;;;;;5050867;28;20045;-76
2022/07/04 02:51:25;;;;;;;4.60;2.78;;;12.80;99.90;;;;;;5043518;28;20060;-77
2022/07/04 02:53:50;;;;;;;5.82;2.90;;;12.70;99.90;;;;;;5035378;28;20486;-76
2022/07/04 02:56:16;;;;;;;4.75;2.92;;;12.70;99.90;;;;;;5032629;28;20044;-77
2022/07/04 02:58:42;;;;;;;5.70;3.03;;;12.70;99.90;;;;;;5050480;28;20037;-77
2022/07/04 03:01:08;;;;;;;5.95;2.95;;;12.70;99.90;;;;;;5033784;28;20037;-76
2022/07/04 03:03:33;;;;;;;5.28;3.30;;;12.80;99.90;;;;;;5028328;28;20104;-77
2022/07/04 03:05:59;;;;;;;7.22;3.17;;;12.80;99.90;;;;;;5035926;28;20041;-76
2022/07/04 03:08:25;;;;;;;4.72;2.95;;;12.80;99.90;;;;;;5031280;28;20126;-76
2022/07/04 03:10:53;;;;;;;4.68;2.70;;;12.80;99.90;;;;;;5050992;28;20520;-77
2022/07/04 03:13:19;;;;;;;3.80;2.20;;;12.70;99.90;;;;;;5050297;28;20183;-77
2022/07/04 03:15:45;;;;;;;5.75;3.30;;;12.70;99.90;;;;;;5045857;28;20038;-77
2022/07/04 03:18:11;;;;;;;5.05;2.80;;;12.60;99.90;;;;;;5031954;28;20041;-77
2022/07/04 03:20:37;;;;;;;5.32;3.28;;;12.60;99.90;;;;;;5058480;28;20080;-76
2022/07/04 03:23:02;;;;;;;4.97;2.97;;;12.60;99.90;;;;;;5034358;28;20587;-76
2022/07/04 03:25:29;;;;;;;5.32;3.10;;;12.60;99.90;;;;;;5066210;28;20047;-77
2022/07/04 03:27:54;;;;;;;5.82;3.30;;;12.60;99.90;;;;;;5028956;28;20049;-77
2022/07/04 03:30:20;;;;;;;6.72;3.70;;;12.60;99.90;;;;;;5041664;28;20048;-77
2022/07/04 03:32:46;;;;;;;4.85;3.10;;;12.70;99.90;;;;;;5050739;28;20037;-77
2022/07/04 03:35:11;;;;;;;6.53;3.08;;;12.70;99.90;;;;;;5051436;28;20508;-76
2022/07/04 03:37:37;;;;;;;4.20;2.40;;;12.70;99.90;;;;;;5050485;28;20064;-75
2022/07/04 03:40:03;;;;;;;4.15;2.05;;;12.60;99.90;;;;;;5050626;28;20041;-75
2022/07/04 03:42:29;;;;;;;4.05;2.38;;;12.60;99.90;;;;;;5049639;28;20064;-75
2022/07/04 03:44:55;;;;;;;4.63;2.78;;;12.60;99.90;;;;;;5067418;28;20064;-76
2022/07/04 03:47:20;;;;;;;6.07;2.95;;;12.70;99.90;;;;;;5034885;28;20166;-75
2022/07/04 03:49:46;;;;;;;4.97;2.83;;;12.70;99.90;;;;;;5048444;28;20418;-76
2022/07/04 03:52:11;;;;;;;5.20;3.10;;;12.60;99.90;;;;;;5051701;28;20029;-77
2022/07/04 03:54:37;;;;;;;6.35;3.40;;;12.70;99.90;;;;;;5049828;28;20477;-77
2022/07/04 03:57:03;;;;;;;5.68;3.40;;;12.60;99.90;;;;;;5036705;28;20045;-76
2022/07/04 03:59:28;;;;;;;4.72;2.83;;;12.60;99.90;;;;;;5045286;28;20033;-77
2022/07/04 04:01:54;;;;;;;5.28;3.50;;;12.60;99.90;;;;;;5053448;28;20402;-77
2022/07/04 04:07:04;;;;;;;7.70;3.70;;;12.60;99.90;;;;;;5054216;28;20557;-77
2022/07/04 04:09:30;;;;;;;5.50;2.90;;;12.60;99.90;;;;;;5053880;28;20167;-77
2022/07/04 04:11:55;;;;;;;4.72;2.92;;;12.60;99.90;;;;;;5052569;28;20190;-77
2022/07/04 04:14:21;;;;;;;5.18;3.30;;;12.70;99.90;;;;;;5054810;28;20053;-77
2022/07/04 04:16:46;;;;;;;5.18;3.30;;;12.70;99.90;;;;;;5069168;28;20048;-77
2022/07/04 04:19:12;;;;;;;6.47;3.70;;;12.70;99.90;;;;;;5025039;28;20477;-77
2022/07/04 04:21:38;;;;;;;6.85;4.05;;;12.80;99.90;;;;;;5064172;28;20032;-77
2022/07/04 04:24:04;;;;;;;7.45;4.35;;;12.80;99.90;;;;;;5052151;28;20059;-77
2022/07/04 04:26:30;;;;;;;8.38;4.40;;;12.90;99.90;;;;;;5053478;28;20485;-76
2022/07/04 04:28:56;;;;;;;7.90;5.18;;;13.00;99.90;;;;;;5060428;28;20040;-77
2022/07/04 04:31:22;;;;;;;9.25;5.15;;;13.00;99.90;;;;;;5036769;28;20099;-77
2022/07/04 04:33:47;;;;;;;8.20;5.55;;;13.00;99.90;;;;;;5048720;28;20484;-78
2022/07/04 04:36:13;;;;;;;9.32;5.90;;;13.00;99.90;;;;;;5035812;28;20063;-77
2022/07/04 04:38:39;;;;;;;9.30;5.90;;;13.10;99.90;;;;;;5052712;28;20036;-77
2022/07/04 04:41:04;;;;;;;8.35;5.72;;;13.10;99.90;;;;;;5068759;28;20029;-78
2022/07/04 04:43:30;;;;;;;8.13;5.82;;;13.20;99.90;;;;;;5037901;28;20444;-77
2022/07/04 04:45:56;;;;;;;10.25;5.68;;;13.20;99.90;;;;;;5034917;28;20068;-77
2022/07/04 04:48:21;;;;;;;10.10;6.00;;;13.30;99.90;;;;;;5053518;28;20120;-76
2022/07/04 04:50:47;;;;;;;8.15;5.85;;;13.30;99.90;;;;;;5051431;28;20037;-77
2022/07/04 04:53:12;;;;;;;9.23;6.28;;;13.50;99.90;;;;;;5053976;28;20072;-77
2022/07/04 04:55:39;;;;;;;9.23;6.30;;;13.50;99.90;;;;;;5036348;28;20037;-77
2022/07/04 04:58:04;;;;;;;9.90;6.50;;;13.60;99.90;;;;;;5053313;28;20044;-77
2022/07/04 05:00:31;;;;;;;10.23;7.20;;;13.60;99.90;;;;;;5035896;28;20033;-77
2022/07/04 05:02:56;;;;;;;10.80;7.00;;;13.70;99.90;;;;;;5067268;28;20037;-76
2022/07/04 05:05:22;;;;;;;12.82;7.53;;;13.80;99.90;;;;;;5040444;28;20405;-77
2022/07/04 05:07:47;;;;;;;9.80;7.18;;;13.80;99.90;;;;;;5050315;28;20041;-77
2022/07/04 05:10:13;;;;;;;9.73;6.68;;;13.90;99.90;;;;;;5051785;28;20049;-77
2022/07/04 05:12:39;;;;;;;9.93;6.80;;;13.90;99.90;;;;;;5052912;28;20052;-77
2022/07/04 05:15:05;;;;;;;9.13;6.47;;;13.90;99.90;;;;;;5051762;28;20047;-77
2022/07/04 05:17:30;;;;;;;11.18;6.82;;;14.00;99.90;;;;;;5033475;28;20070;-77
2022/07/04 05:19:56;;;;;;;11.90;7.32;;;14.10;99.90;;;;;;5052807;28;20118;-77
2022/07/04 05:22:21;;;;;;;11.63;7.35;;;14.20;99.90;;;;;;5050349;28;20036;-77
2022/07/04 05:24:47;;;;;;;11.02;7.20;;;14.30;99.90;;;;;;5035870;28;20418;-77
2022/07/04 05:27:13;;;;;;;12.15;7.43;;;14.40;99.90;;;;;;5052591;28;20049;-77
2022/07/04 05:29:38;;;;;;;12.07;7.88;;;14.40;99.90;;;;;;5050943;28;20037;-77
2022/07/04 05:32:06;;;;;;;10.95;6.97;;;14.50;99.90;;;;;;5064298;28;20123;-76
2022/07/04 05:34:31;;;;;;;14.27;7.60;;;14.60;99.90;;;;;;5051710;28;20037;-78
2022/07/04 05:36:57;;;;;;;13.27;7.53;;;14.60;99.90;;;;;;5051457;28;20045;-77
2022/07/04 05:39:22;;;;;;;11.20;7.60;;;14.70;99.90;;;;;;5051817;28;20068;-77
2022/07/04 05:41:48;;;;;;;15.63;7.60;;;14.80;99.90;;;;;;5035661;28;20393;-77
2022/07/04 05:44:13;;;;;;;10.10;7.95;;;14.80;99.90;;;;;;5051292;28;20072;-77
2022/07/04 05:46:39;;;;;;;11.77;8.25;;;14.90;99.90;;;;;;5051948;28;20040;-76
2022/07/04 05:49:05;;;;;;;12.63;8.32;;;15.10;99.90;;;;;;5045839;28;20090;-76
2022/07/04 05:51:30;;;;;;;11.85;7.82;;;15.20;99.90;;;;;;5032793;28;20110;-76
2022/07/04 05:53:56;;;;;;;12.68;8.20;;;15.30;99.90;;;;;;5040024;28;20041;-76
2022/07/04 05:56:21;;;;;;;14.38;9.10;;;15.40;99.90;;;;;;5068573;28;20098;-76
2022/07/04 05:58:47;;;;;;;12.18;8.50;;;15.50;99.90;;;;;;5034700;28;20079;-76
2022/07/04 06:01:13;;;;;;;12.15;8.13;;;15.60;99.90;;;;;;5033339;28;20033;-76
2022/07/04 06:03:39;;;;;;;13.65;8.40;;;15.60;99.90;;;;;;5046217;28;20157;-77
2022/07/04 06:06:05;;;;;;;10.32;7.22;;;15.70;99.90;;;;;;5042811;28;20124;-77
2022/07/04 06:08:31;;;;;;;13.43;8.23;;;15.90;99.90;;;;;;5051225;28;20052;-77
2022/07/04 06:10:57;;;;;;;11.02;7.90;;;16.00;99.90;;;;;;5038189;28;20041;-76
2022/07/04 06:13:22;;;;;;;12.65;7.63;;;16.10;99.90;;;;;;5036259;28;20073;-77
2022/07/04 06:15:49;;;;;;;11.73;7.07;;;16.20;99.90;;;;;;5045737;28;20116;-77
2022/07/04 06:18:15;;;;;;;11.95;6.38;;;16.20;99.90;;;;;;5046097;28;20548;-78
2022/07/04 06:20:41;;;;;;;14.55;6.97;;;16.30;99.90;;;;;;5051862;28;20132;-77
2022/07/04 06:23:07;;;;;;;9.02;5.80;;;16.30;99.90;;;;;;5051628;28;20040;-77
2022/07/04 06:25:33;;;;;;;11.70;5.97;;;16.40;99.90;;;;;;5034991;28;20037;-78
2022/07/04 06:28:00;;;;;;;10.10;5.90;;;16.50;99.90;;;;;;5050998;28;20094;-78
2022/07/04 06:30:26;;;;;;;11.43;5.78;;;16.60;99.90;;;;;;5052526;28;20045;-78
2022/07/04 06:32:55;;;;;;;9.20;5.47;;;16.60;99.90;;;;;;5048588;28;20497;-78
2022/07/04 06:38:07;;;;;;;7.68;4.90;;;16.90;99.90;;;;;;5031838;28;20107;-78
2022/07/04 06:40:34;;;;;;;10.23;5.32;;;16.90;99.90;;;;;;5044637;28;20511;-78
2022/07/04 06:43:00;;;;;;;10.15;4.93;;;17.00;99.90;;;;;;5051248;28;20393;-77
2022/07/04 06:45:26;;;;;;;9.02;4.32;;;17.10;99.90;;;;;;5051249;28;20053;-77
2022/07/04 06:47:51;;;;;;;11.25;4.30;;;17.20;99.90;;;;;;5033275;28;20037;-78
2022/07/04 06:50:17;;;;;;;8.90;4.63;;;17.10;99.90;;;;;;5019149;28;20064;-77
2022/07/04 06:52:43;;;;;;;8.23;3.83;;;17.30;99.90;;;;;;5032996;28;20037;-77
2022/07/04 06:55:09;;;;;;;12.60;4.95;;;17.30;99.90;;;;;;5033614;28;20074;-77
2022/07/04 06:57:35;;;;;;;10.15;4.00;;;17.50;99.90;;;;;;5047500;28;20037;-77
2022/07/04 07:00:01;;;;;;;8.80;4.03;;;17.60;99.90;;;;;;5050097;28;20029;-77
2022/07/04 07:02:26;;;;;;;11.00;4.20;;;17.60;99.90;;;;;;5049604;28;20497;-77
2022/07/04 07:04:55;;;;;;;11.35;4.45;;;17.70;99.90;;;;;;5050937;28;20051;-77
2022/07/04 07:07:21;;;;;;;10.40;4.15;;;17.80;99.90;;;;;;5021442;28;20094;-77
2022/07/04 07:09:46;;;;;;;9.43;4.10;;;17.80;99.90;;;;;;5031046;28;20044;-78
2022/07/04 07:12:12;;;;;;;10.27;4.45;;;17.90;99.90;;;;;;5048686;28;20061;-77
2022/07/04 07:14:37;;;;;;;9.00;4.13;;;17.80;99.90;;;;;;5050586;28;20382;-77
2022/07/04 07:17:03;;;;;;;10.95;4.65;;;17.80;99.90;;;;;;5050411;28;20120;-78
2022/07/04 07:19:29;;;;;;;8.75;4.05;;;17.80;99.90;;;;;;5051239;28;20371;-79
2022/07/04 07:21:54;;;;;;;9.45;4.07;;;17.80;99.90;;;;;;5050779;28;20087;-79
2022/07/04 07:24:20;;;;;;;11.63;4.75;;;17.80;99.90;;;;;;5019115;28;20545;-78
2022/07/04 07:26:45;;;;;;;11.98;4.38;;;17.80;99.90;;;;;;5044518;28;20398;-78
2022/07/04 07:29:11;;;;;;;7.90;4.75;;;17.90;99.90;;;;;;5050497;28;20159;-77
2022/07/04 07:31:36;;;;;;;10.43;5.13;;;17.90;99.90;;;;;;5047777;28;20521;-77
2022/07/04 07:34:02;;;;;;;11.65;5.20;;;18.00;99.90;;;;;;5052263;28;20146;-78
2022/07/04 07:36:28;;;;;;;11.40;4.50;;;18.00;99.90;;;;;;5029123;28;20041;-77
2022/07/04 07:38:55;;;;;;;12.35;4.90;;;18.10;99.90;;;;;;5029871;28;20119;-78
2022/07/04 07:41:21;;;;;;;12.68;5.25;;;18.20;99.90;;;;;;5026602;28;20389;-77
2022/07/04 07:43:47;;;;;;;10.68;4.72;;;18.30;99.90;;;;;;5043951;28;20124;-78
2022/07/04 07:46:12;;;;;;;10.20;4.40;;;18.40;99.90;;;;;;5025484;28;20068;-78
2022/07/04 07:48:38;;;;;;;12.18;4.47;;;18.40;99.90;;;;;;5071147;28;20033;-77
2022/07/04 07:51:04;;;;;;;10.80;3.40;;;18.30;99.90;;;;;;5046246;28;20400;-77
2022/07/04 07:53:29;;;;;;;10.32;3.38;;;18.30;99.90;;;;;;5022005;28;20150;-77
2022/07/04 07:55:55;;;;;;;11.18;3.65;;;18.20;99.90;;;;;;5048855;28;20583;-78
2022/07/04 07:58:20;;;;;;;11.00;3.60;;;18.30;99.90;;;;;;5070657;28;20043;-77
2022/07/04 08:00:46;;;;;;;10.13;3.42;;;18.50;99.90;;;;;;5054158;28;20039;-77
2022/07/04 08:05:57;;;;;;;8.60;2.90;;;18.60;99.90;;;;;;5050536;28;20080;-77
2022/07/04 08:08:23;;;;;;;8.75;2.60;;;18.80;99.90;;;;;;5038506;28;20111;-78
2022/07/04 08:10:50;;;;;;;8.68;2.72;;;18.90;99.90;;;;;;5036986;28;20528;-78
2022/07/04 08:13:15;;;;;;;5.68;2.33;;;18.90;99.90;;;;;;5054061;28;20057;-78
2022/07/04 08:15:41;;;;;;;7.40;1.95;;;18.80;99.90;;;;;;5053857;28;20064;-77
2022/07/04 08:18:06;;;;;;;10.25;3.15;;;18.90;99.90;;;;;;5021042;28;20099;-77
2022/07/04 08:20:32;;;;;;;7.95;2.50;;;18.90;99.90;;;;;;5024429;28;20037;-77
2022/07/04 08:22:58;;;;;;;7.05;2.42;;;19.10;99.90;;;;;;5041677;28;20041;-78
2022/07/04 08:25:23;;;;;;;6.60;2.22;;;19.20;99.90;;;;;;5053079;28;20033;-77
2022/07/04 08:27:49;;;;;;;7.78;2.13;;;19.20;99.90;;;;;;5048207;28;20040;-78
2022/07/04 08:30:15;;;;;;;6.35;2.05;;;19.20;99.90;;;;;;5037480;28;20041;-78
2022/07/04 08:32:40;;;;;;;7.85;2.67;;;19.40;99.90;;;;;;5052930;28;20040;-75
2022/07/04 08:35:06;;;;;;;10.18;2.42;;;19.40;99.90;;;;;;5037600;28;20044;-79
2022/07/04 08:37:32;;;;;;;6.57;2.10;;;19.50;99.90;;;;;;5032336;28;20034;-78
2022/07/04 08:39:58;;;;;;;7.80;2.20;;;19.60;99.90;;;;;;5034415;28;20044;-78
2022/07/04 08:42:23;;;;;;;9.68;2.42;;;19.60;99.90;;;;;;5038922;28;20449;-78
2022/07/04 08:44:51;;;;;;;7.05;1.90;;;19.70;99.90;;;;;;5051207;28;20123;-78
2022/07/04 08:47:21;;;;;;;9.23;3.03;;;19.70;99.90;;;;;;5053108;28;20045;-78
2022/07/04 08:49:55;;;;;;;5.38;2.03;;;19.70;99.90;;;;;;5052467;28;20584;-78
2022/07/04 08:52:38;;;;;;;5.90;2.00;;;19.80;99.90;;;;;;5049896;28;20048;-78
2022/07/04 09:00:36;;;;;;;6.60;1.90;;;19.90;99.90;;;;;;5053936;28;20049;-78
2022/07/04 09:03:03;;;;;;;6.50;1.92;;;19.80;99.90;;;;;;5039313;28;20037;-78
2022/07/04 09:05:29;;;;;;;6.70;2.22;;;19.50;99.90;;;;;;5033851;28;20041;-78
2022/07/04 09:07:55;;;;;;;7.43;2.03;;;19.30;99.90;;;;;;5044396;28;20570;-78
2022/07/04 09:10:21;;;;;;;10.30;2.95;;;19.20;99.90;;;;;;5053101;28;20128;-78
2022/07/04 09:12:47;;;;;;;9.93;3.70;;;19.10;99.90;;;;;;5044335;28;20066;-78
2022/07/04 09:15:13;;;;;;;8.25;2.13;;;19.20;99.90;;;;;;5036254;28;20531;-78
2022/07/04 09:17:39;;;;;;;3.63;1.42;;;19.40;99.90;;;;;;5050822;28;20375;-78
2022/07/04 09:20:17;;;;;;;6.25;1.98;;;19.50;99.90;;;;;;5053536;28;20029;-78
2022/07/04 09:22:43;;;;;;;6.00;1.70;;;19.60;99.90;;;;;;5052405;28;20040;-78
2022/07/04 09:25:12;;;;;;;4.55;1.58;;;19.80;99.90;;;;;;5037824;28;20046;-77
2022/07/04 09:27:39;;;;;;;5.47;1.52;;;20.00;99.90;;;;;;5033501;28;20037;-78
2022/07/04 09:30:06;;;;;;;6.22;1.60;;;20.10;99.90;;;;;;5048396;28;20428;-78
2022/07/04 09:32:48;;;;;;;7.05;1.58;;;20.30;99.90;;;;;;5070021;28;20045;-77
2022/07/04 09:35:17;;;;;;;4.43;1.48;;;20.30;99.90;;;;;;5049248;28;20033;-78
2022/07/04 09:37:46;;;;;;;2.55;1.20;;;20.50;99.90;;;;;;5034016;28;20131;-78
2022/07/04 09:40:25;;;;;;;3.13;1.17;;;20.60;99.90;;;;;;5027555;28;20129;-78
2022/07/04 09:42:52;;;;;;;2.35;1.17;;;20.50;99.90;;;;;;5049063;28;20388;-78
2022/07/04 09:45:19;;;;;;;2.92;1.23;;;20.40;99.90;;;;;;5025895;28;20045;-78
2022/07/04 09:47:46;;;;;;;3.90;1.30;;;20.10;99.90;;;;;;5049209;28;20069;-78
2022/07/04 09:50:20;;;;;;;2.13;1.17;;;20.00;99.90;;;;;;5052984;28;20041;-78
2022/07/04 09:52:48;;;;;;;4.53;1.30;;;19.90;99.90;;;;;;5052382;28;20052;-78
2022/07/04 09:55:23;;;;;;;2.38;1.00;;;19.90;99.90;;;;;;5030894;28;20034;-78
2022/07/04 09:57:49;;;;;;;3.88;1.30;;;20.00;99.90;;;;;;5046430;28;20558;-78
2022/07/04 10:00:35;;;;;;;3.42;1.33;;;20.10;99.90;;;;;;5050846;28;20032;-78
2022/07/04 10:03:32;;;;;;;3.15;1.20;;;20.10;99.90;;;;;;5045344;28;20489;-78
2022/07/04 10:06:12;;;;;;;5.30;1.30;;;20.00;99.90;;;;;;5029211;28;20041;-78
2022/07/04 10:08:43;;;;;;;4.65;1.35;;;20.10;99.90;;;;;;5042653;28;20051;-78
2022/07/04 10:11:09;;;;;;;6.00;1.45;;;20.00;99.90;;;;;;5049397;28;20045;-78
2022/07/04 10:13:36;;;;;;;3.47;1.05;;;20.10;99.90;;;;;;5035902;28;20082;-78
2022/07/04 10:16:02;;;;;;;6.93;1.50;;;19.80;99.90;;;;;;5049124;28;20052;-78
2022/07/04 10:18:28;;;;;;;3.08;1.38;;;20.10;99.90;;;;;;5051669;28;20033;-78
2022/07/04 10:20:55;;;;;;;2.88;1.17;;;20.00;99.90;;;;;;5031617;28;20541;-78
2022/07/04 10:23:22;;;;;;;4.15;1.23;;;20.20;99.90;;;;;;5050988;28;20037;-78
2022/07/04 10:25:48;;;;;;;4.47;1.38;;;20.20;99.90;;;;;;5042222;28;20045;-78
2022/07/04 10:28:14;;;;;;;3.42;1.30;;;20.10;99.90;;;;;;5051558;28;20090;-78
2022/07/04 10:30:41;;;;;;;3.33;1.25;;;20.00;99.90;;;;;;5047998;28;20599;-79
2022/07/04 10:33:09;;;;;;;3.78;1.40;;;20.20;99.90;;;;;;5052032;28;20045;-79
2022/07/04 10:35:54;;;;;;;7.15;2.20;;;20.20;99.90;;;;;;5040730;28;20100;-79
2022/07/04 10:38:26;;;;;;;10.20;3.17;;;20.20;99.90;;;;;;5060581;28;20033;-78
2022/07/04 10:41:03;;;;;;;3.75;1.38;;;20.20;99.90;;;;;;5052166;28;20040;-79
2022/07/04 10:43:37;;;;;;;6.45;1.70;;;20.40;99.90;;;;;;5048823;28;20052;-79
2022/07/04 10:46:15;;;;;;;3.58;1.52;;;20.40;99.90;;;;;;5036789;28;20375;-79
2022/07/04 10:48:50;;;;;;;3.70;1.40;;;20.40;99.90;;;;;;5032044;28;20045;-79
2022/07/04 10:51:34;;;;;;;7.80;1.42;;;20.40;99.90;;;;;;5040881;28;20416;-79
2022/07/04 10:54:09;;;;;;;4.65;1.50;;;20.50;99.90;;;;;;5028146;28;20075;-79
2022/07/04 10:56:40;;;;;;;6.97;1.73;;;20.40;99.90;;;;;;5063377;28;20049;-79
2022/07/04 10:59:13;;;;;;;5.82;1.80;;;20.30;99.90;;;;;;5029347;28;20086;-79
2022/07/04 11:01:44;;;;;;;2.75;1.50;;;20.00;99.90;;;;;;5034677;28;20118;-79
2022/07/04 11:04:10;;;;;;;3.83;1.60;;;20.00;99.90;;;;;;5050047;28;20041;-79
2022/07/04 11:06:36;;;;;;;6.05;1.60;;;20.20;99.90;;;;;;5042820;28;20048;-78
2022/07/04 11:09:14;;;;;;;3.10;1.38;;;20.50;99.90;;;;;;5036327;28;20045;-79
2022/07/04 11:12:01;;;;;;;3.03;1.25;;;20.70;99.90;;;;;;5040694;28;20121;-79
2022/07/04 11:14:49;;;;;;;4.22;1.40;;;20.90;99.90;;;;;;5055819;28;20045;-79
2022/07/04 11:17:33;;;;;;;4.75;1.67;;;20.80;99.90;;;;;;5022247;28;20474;-78
2022/07/04 11:20:04;;;;;;;3.47;1.48;;;20.70;99.90;;;;;;5045474;28;20044;-78
2022/07/04 11:22:29;;;;;;;1.87;1.17;;;20.90;99.90;;;;;;5029213;28;20428;-78
2022/07/04 11:24:55;;;;;;;3.47;1.42;;;20.90;99.90;;;;;;5035673;28;20099;-78
2022/07/04 11:27:22;;;;;;;4.45;1.80;;;21.10;99.90;;;;;;5037028;28;20099;-78
2022/07/04 11:29:55;;;;;;;3.88;1.30;;;21.00;99.90;;;;;;5035658;28;20493;-78
2022/07/04 11:32:29;;;;;;;5.05;1.70;;;20.90;99.90;;;;;;5019205;28;20037;-78
2022/07/04 11:34:55;;;;;;;5.22;1.50;;;20.80;99.90;;;;;;5041830;28;20065;-78
2022/07/04 11:37:21;;;;;;;4.78;1.77;;;20.90;99.90;;;;;;5054320;28;20041;-79
2022/07/04 11:45:02;;;;;;;3.03;1.25;;;20.90;99.90;;;;;;5048913;28;20036;-78
2022/07/04 11:45:24;;;;;;;2.70;1.05;;;21.20;99.90;;;;;;5044207;28;20036;-78
2022/07/04 11:47:50;;;;;;;3.50;1.20;;;21.30;99.90;;;;;;5047322;28;20396;-78
2022/07/04 11:50:18;;;;;;;3.33;1.30;;;21.30;99.90;;;;;;5038385;28;20041;-78
2022/07/04 11:52:53;;;;;;;2.88;1.13;;;21.20;99.90;;;;;;5036231;28;20079;-79
2022/07/04 11:55:21;;;;;;;3.13;1.30;;;21.10;99.90;;;;;;5035802;28;20434;-79
2022/07/04 11:57:55;;;;;;;2.63;1.10;;;21.30;99.90;;;;;;5046572;28;20040;-78
2022/07/04 12:00:25;;;;;;;3.83;1.40;;;21.40;99.90;;;;;;5054402;28;20123;-79
2022/07/04 12:02:51;;;;;;;2.60;1.30;;;21.20;99.90;;;;;;5035190;28;20034;-79
2022/07/04 12:05:18;;;;;;;3.47;1.40;;;21.20;99.90;;;;;;5034963;28;20064;-79
2022/07/04 12:07:46;;;;;;;2.83;1.23;;;21.20;99.90;;;;;;5043798;28;20513;-79
2022/07/04 12:10:23;;;;;;;3.80;1.50;;;21.30;99.90;;;;;;5050444;28;20033;-78
2022/07/04 12:12:52;;;;;;;5.22;1.38;;;21.30;99.90;;;;;;5053160;28;20059;-78
2022/07/04 12:15:19;;;;;;;3.33;1.00;;;21.30;99.90;;;;;;5029569;28;20040;-79
2022/07/04 12:17:44;;;;;;;4.72;1.50;;;21.20;99.90;;;;;;5046127;28;20037;-79
2022/07/04 12:20:20;;;;;;;3.72;1.30;;;21.20;99.90;;;;;;5037642;28;20087;-78
2022/07/04 12:22:50;;;;;;;3.65;1.33;;;21.20;99.90;;;;;;5052111;28;20128;-78
2022/07/04 12:25:22;;;;;;;3.08;1.10;;;21.20;99.90;;;;;;5066225;28;20036;-79
2022/07/04 12:27:55;;;;;;;;;;;21.20;99.90;;;;;;5067564;28;20123;-79
2022/07/04 12:30:21;;;;;;;3.63;1.30;;;21.20;99.90;;;;;;5037194;28;19916;-78
2022/07/04 12:32:50;;;;;;;5.85;1.15;;;21.30;99.90;;;;;;5052844;28;20048;-79
2022/07/04 12:35:43;;;;;;;4.60;1.15;;;21.30;99.90;;;;;;5062944;28;20505;-79
2022/07/04 12:38:21;;;;;;;2.13;1.02;;;21.20;99.90;;;;;;5045644;28;20073;-78
2022/07/04 12:41:07;;;;;;;1.90;0.90;;;21.30;99.90;;;;;;5033592;28;20032;-79
2022/07/04 12:43:39;;;;;;;4.82;1.00;;;21.30;99.80;;;;;;5043969;28;20037;-78
2022/07/04 12:46:05;;;;;;;;;;;21.20;97.40;;;;;;5046298;28;20044;-78
2022/07/04 12:48:31;;;;;;;1.92;0.80;;;21.20;99.50;;;;;;5036847;28;19917;-78
2022/07/04 12:51:15;;;;;;;3.22;0.95;;;21.00;99.90;;;;;;5069396;28;20117;-79
2022/07/04 12:53:43;;;;;;;2.10;0.93;;;20.90;99.80;;;;;;5069187;28;20437;-78
2022/07/04 12:56:10;;;;;;;3.38;0.90;;;21.00;99.90;;;;;;5053291;28;20053;-78
2022/07/04 12:58:36;;;;;;;4.25;1.00;;;21.10;99.90;;;;;;5037248;28;20037;-78
2022/07/04 13:01:02;;;;;;;4.18;1.10;;;21.10;99.60;;;;;;5050272;28;20037;-78
2022/07/04 13:03:28;;;;;;;3.92;1.10;;;21.10;99.90;;;;;;5016994;28;20049;-78
2022/07/04 13:05:57;;;;;;;4.35;1.00;;;20.80;99.70;;;;;;5033910;28;20167;-78
2022/07/04 13:08:22;;;;;;;2.40;1.10;;;20.90;99.90;;;;;;5042591;28;20041;-78